sensor_id;sensor_type;location;lat;lon;timestamp;pressure;altitude;pressure_sealevel;temperature;humidity
73453;BME280;61687;56.232;43.854;2023-12-20T00:01:51;98750.09;;;3.42;82.66
73453;BME280;61687;56.232;43.854;2023-12-20T00:04:17;98754.78;;;3.45;82.60
73453;BME280;61687;56.232;43.854;2023-12-20T00:06:43;98744.00;;;3.49;82.56
73453;BME280;61687;56.232;43.854;2023-12-20T00:09:09;98750.28;;;3.53;82.57
73453;BME280;61687;56.232;43.854;2023-12-20T00:11:35;98751.56;;;3.59;82.15
73453;BME280;61687;56.232;43.854;2023-12-20T00:14:01;98748.44;;;3.57;82.32
73453;BME280;61687;56.232;43.854;2023-12-20T00:16:28;98762.69;;;3.54;82.53
73453;BME280;61687;56.232;43.854;2023-12-20T00:18:54;98756.91;;;3.55;82.49
73453;BME280;61687;56.232;43.854;2023-12-20T00:21:19;98764.19;;;3.51;82.76
73453;BME280;61687;56.232;43.854;2023-12-20T00:23:45;98772.22;;;3.48;83.01
73453;BME280;61687;56.232;43.854;2023-12-20T00:26:11;98767.22;;;3.50;83.01
73453;BME280;61687;56.232;43.854;2023-12-20T00:28:37;98770.75;;;3.50;82.81
73453;BME280;61687;56.232;43.854;2023-12-20T00:31:03;98767.09;;;3.42;83.09
73453;BME280;61687;56.232;43.854;2023-12-20T00:33:30;98771.03;;;3.45;83.02
73453;BME280;61687;56.232;43.854;2023-12-20T00:35:56;98767.19;;;3.46;83.16
73453;BME280;61687;56.232;43.854;2023-12-20T00:38:22;98783.13;;;3.51;83.12
73453;BME280;61687;56.232;43.854;2023-12-20T00:40:48;98786.63;;;3.52;82.96
73453;BME280;61687;56.232;43.854;2023-12-20T00:43:15;98777.72;;;3.51;83.16
73453;BME280;61687;56.232;43.854;2023-12-20T00:45:41;98785.13;;;3.54;82.98
73453;BME280;61687;56.232;43.854;2023-12-20T00:48:07;98779.38;;;3.56;82.94
73453;BME280;61687;56.232;43.854;2023-12-20T00:50:33;98777.84;;;3.58;83.11
73453;BME280;61687;56.232;43.854;2023-12-20T00:52:59;98780.22;;;3.60;82.86
73453;BME280;61687;56.232;43.854;2023-12-20T00:55:24;98772.84;;;3.61;82.89
73453;BME280;61687;56.232;43.854;2023-12-20T00:57:50;98784.56;;;3.65;82.85
73453;BME280;61687;56.232;43.854;2023-12-20T01:00:16;98787.63;;;3.63;82.86
73453;BME280;61687;56.232;43.854;2023-12-20T01:02:42;98785.34;;;3.65;82.90
73453;BME280;61687;56.232;43.854;2023-12-20T01:05:08;98792.31;;;3.66;82.61
73453;BME280;61687;56.232;43.854;2023-12-20T01:07:35;98782.13;;;3.60;82.80
73453;BME280;61687;56.232;43.854;2023-12-20T01:10:01;98792.94;;;3.60;82.50
73453;BME280;61687;56.232;43.854;2023-12-20T01:12:29;98786.84;;;3.63;82.50
73453;BME280;61687;56.232;43.854;2023-12-20T01:14:55;98790.25;;;3.60;82.53
73453;BME280;61687;56.232;43.854;2023-12-20T01:17:21;98798.38;;;3.60;82.53
73453;BME280;61687;56.232;43.854;2023-12-20T01:19:47;98804.66;;;3.64;82.24
73453;BME280;61687;56.232;43.854;2023-12-20T01:22:12;98810.78;;;3.61;82.03
73453;BME280;61687;56.232;43.854;2023-12-20T01:24:38;98794.47;;;3.57;82.51
73453;BME280;61687;56.232;43.854;2023-12-20T01:27:04;98808.06;;;3.61;82.31
73453;BME280;61687;56.232;43.854;2023-12-20T01:29:30;98808.16;;;3.64;81.91
73453;BME280;61687;56.232;43.854;2023-12-20T01:31:56;98805.44;;;3.64;82.03
73453;BME280;61687;56.232;43.854;2023-12-20T01:34:22;98809.72;;;3.65;81.80
73453;BME280;61687;56.232;43.854;2023-12-20T01:36:48;98809.78;;;3.69;81.72
73453;BME280;61687;56.232;43.854;2023-12-20T01:39:13;98803.22;;;3.70;81.55
73453;BME280;61687;56.232;43.854;2023-12-20T01:41:39;98803.94;;;3.67;81.75
73453;BME280;61687;56.232;43.854;2023-12-20T01:44:05;98805.50;;;3.68;81.72
73453;BME280;61687;56.232;43.854;2023-12-20T01:46:31;98806.72;;;3.70;81.73
73453;BME280;61687;56.232;43.854;2023-12-20T01:48:57;98808.66;;;3.70;81.67
73453;BME280;61687;56.232;43.854;2023-12-20T01:51:23;98808.00;;;3.77;81.46
73453;BME280;61687;56.232;43.854;2023-12-20T01:53:50;98814.50;;;3.72;81.70
73453;BME280;61687;56.232;43.854;2023-12-20T01:56:16;98822.41;;;3.81;81.09
73453;BME280;61687;56.232;43.854;2023-12-20T01:58:46;98826.97;;;3.77;81.30
73453;BME280;61687;56.232;43.854;2023-12-20T02:01:13;98824.25;;;3.77;81.10
73453;BME280;61687;56.232;43.854;2023-12-20T02:03:41;98822.28;;;3.74;81.15
73453;BME280;61687;56.232;43.854;2023-12-20T02:06:08;98822.69;;;3.76;81.22
73453;BME280;61687;56.232;43.854;2023-12-20T02:08:35;98825.44;;;3.79;80.92
73453;BME280;61687;56.232;43.854;2023-12-20T02:11:01;98823.97;;;3.82;80.86
73453;BME280;61687;56.232;43.854;2023-12-20T02:13:28;98824.97;;;3.74;80.68
73453;BME280;61687;56.232;43.854;2023-12-20T02:15:55;98822.31;;;3.77;80.62
73453;BME280;61687;56.232;43.854;2023-12-20T02:18:22;98822.69;;;3.76;80.90
73453;BME280;61687;56.232;43.854;2023-12-20T02:20:48;98819.97;;;3.76;80.92
73453;BME280;61687;56.232;43.854;2023-12-20T02:23:13;98823.53;;;3.80;80.82
73453;BME280;61687;56.232;43.854;2023-12-20T02:25:39;98828.16;;;3.79;80.70
73453;BME280;61687;56.232;43.854;2023-12-20T02:28:06;98831.88;;;3.71;80.91
73453;BME280;61687;56.232;43.854;2023-12-20T02:30:32;98821.06;;;3.71;81.04
73453;BME280;61687;56.232;43.854;2023-12-20T02:32:59;98830.75;;;3.72;80.89
73453;BME280;61687;56.232;43.854;2023-12-20T02:35:26;98805.94;;;3.70;80.83
73453;BME280;61687;56.232;43.854;2023-12-20T02:37:52;98808.44;;;3.59;81.28
73453;BME280;61687;56.232;43.854;2023-12-20T02:40:18;98811.50;;;3.57;81.60
73453;BME280;61687;56.232;43.854;2023-12-20T02:42:44;98807.84;;;3.50;81.68
73453;BME280;61687;56.232;43.854;2023-12-20T02:45:10;98815.22;;;3.49;81.91
73453;BME280;61687;56.232;43.854;2023-12-20T02:47:36;98819.50;;;3.50;82.19
73453;BME280;61687;56.232;43.854;2023-12-20T02:50:02;98822.28;;;3.54;82.10
73453;BME280;61687;56.232;43.854;2023-12-20T02:52:30;98808.53;;;3.63;81.81
73453;BME280;61687;56.232;43.854;2023-12-20T02:54:56;98815.09;;;3.62;81.87
73453;BME280;61687;56.232;43.854;2023-12-20T02:57:22;98821.78;;;3.68;81.71
73453;BME280;61687;56.232;43.854;2023-12-20T02:59:48;98827.59;;;3.70;81.39
73453;BME280;61687;56.232;43.854;2023-12-20T03:02:14;98824.41;;;3.64;81.63
73453;BME280;61687;56.232;43.854;2023-12-20T03:04:41;98824.09;;;3.69;81.52
73453;BME280;61687;56.232;43.854;2023-12-20T03:07:07;98829.53;;;3.69;81.60
73453;BME280;61687;56.232;43.854;2023-12-20T03:09:33;98823.84;;;3.75;81.21
73453;BME280;61687;56.232;43.854;2023-12-20T03:11:59;98830.66;;;3.68;81.53
73453;BME280;61687;56.232;43.854;2023-12-20T03:14:24;98831.75;;;3.64;81.45
73453;BME280;61687;56.232;43.854;2023-12-20T03:16:50;98832.81;;;3.59;81.49
73453;BME280;61687;56.232;43.854;2023-12-20T03:19:18;98834.25;;;3.53;81.75
73453;BME280;61687;56.232;43.854;2023-12-20T03:21:45;98832.00;;;3.39;82.19
73453;BME280;61687;56.232;43.854;2023-12-20T03:24:11;98828.19;;;3.40;82.28
73453;BME280;61687;56.232;43.854;2023-12-20T03:26:37;98838.31;;;3.43;82.20
73453;BME280;61687;56.232;43.854;2023-12-20T03:29:04;98842.22;;;3.46;82.14
73453;BME280;61687;56.232;43.854;2023-12-20T03:31:30;98836.38;;;3.43;82.08
73453;BME280;61687;56.232;43.854;2023-12-20T03:33:56;98840.31;;;3.46;82.01
73453;BME280;61687;56.232;43.854;2023-12-20T03:36:22;98830.25;;;3.47;82.04
73453;BME280;61687;56.232;43.854;2023-12-20T03:38:48;98829.97;;;3.52;81.53
73453;BME280;61687;56.232;43.854;2023-12-20T03:41:15;98824.81;;;3.47;81.66
73453;BME280;61687;56.232;43.854;2023-12-20T03:43:41;98837.78;;;3.37;81.93
73453;BME280;61687;56.232;43.854;2023-12-20T03:46:10;98836.94;;;3.33;82.08
73453;BME280;61687;56.232;43.854;2023-12-20T03:48:36;98827.97;;;3.29;82.26
73453;BME280;61687;56.232;43.854;2023-12-20T03:51:01;98831.78;;;3.28;82.18
73453;BME280;61687;56.232;43.854;2023-12-20T03:53:27;98824.31;;;3.21;82.35
73453;BME280;61687;56.232;43.854;2023-12-20T03:55:53;98825.00;;;3.18;82.57
73453;BME280;61687;56.232;43.854;2023-12-20T03:58:19;98828.78;;;3.13;82.75
73453;BME280;61687;56.232;43.854;2023-12-20T04:00:45;98832.28;;;3.14;82.71
73453;BME280;61687;56.232;43.854;2023-12-20T04:03:11;98833.06;;;3.14;82.94
73453;BME280;61687;56.232;43.854;2023-12-20T04:05:40;98834.63;;;3.15;82.83
73453;BME280;61687;56.232;43.854;2023-12-20T04:08:07;98830.50;;;3.22;82.71
73453;BME280;61687;56.232;43.854;2023-12-20T04:10:33;98837.66;;;3.30;82.37
73453;BME280;61687;56.232;43.854;2023-12-20T04:12:59;98834.94;;;3.30;82.38
73453;BME280;61687;56.232;43.854;2023-12-20T04:15:25;98833.81;;;3.31;82.32
73453;BME280;61687;56.232;43.854;2023-12-20T04:17:50;98841.56;;;3.33;82.17
73453;BME280;61687;56.232;43.854;2023-12-20T04:20:16;98839.28;;;3.35;82.24
73453;BME280;61687;56.232;43.854;2023-12-20T04:22:42;98833.94;;;3.38;82.08
73453;BME280;61687;56.232;43.854;2023-12-20T04:25:08;98835.72;;;3.31;82.22
73453;BME280;61687;56.232;43.854;2023-12-20T04:27:35;98819.47;;;3.31;82.10
73453;BME280;61687;56.232;43.854;2023-12-20T04:30:01;98826.25;;;3.40;81.71
73453;BME280;61687;56.232;43.854;2023-12-20T04:32:30;98831.25;;;3.38;81.83
73453;BME280;61687;56.232;43.854;2023-12-20T04:34:57;98828.09;;;3.36;81.75
73453;BME280;61687;56.232;43.854;2023-12-20T04:37:23;98827.31;;;3.36;82.07
73453;BME280;61687;56.232;43.854;2023-12-20T04:39:49;98824.25;;;3.37;81.91
73453;BME280;61687;56.232;43.854;2023-12-20T04:42:16;98839.28;;;3.35;82.17
73453;BME280;61687;56.232;43.854;2023-12-20T04:44:42;98839.38;;;3.38;81.92
73453;BME280;61687;56.232;43.854;2023-12-20T04:47:10;98848.34;;;3.42;81.73
73453;BME280;61687;56.232;43.854;2023-12-20T04:49:36;98840.59;;;3.41;82.04
73453;BME280;61687;56.232;43.854;2023-12-20T04:52:02;98840.50;;;3.37;82.18
73453;BME280;61687;56.232;43.854;2023-12-20T04:54:28;98842.00;;;3.35;82.50
73453;BME280;61687;56.232;43.854;2023-12-20T04:56:54;98841.66;;;3.36;82.40
73453;BME280;61687;56.232;43.854;2023-12-20T04:59:20;98859.59;;;3.44;82.14
73453;BME280;61687;56.232;43.854;2023-12-20T05:01:47;98857.19;;;3.39;82.14
73453;BME280;61687;56.232;43.854;2023-12-20T05:04:13;98861.16;;;3.46;82.11
73453;BME280;61687;56.232;43.854;2023-12-20T05:06:39;98859.31;;;3.50;81.90
73453;BME280;61687;56.232;43.854;2023-12-20T05:09:05;98865.72;;;3.41;82.05
73453;BME280;61687;56.232;43.854;2023-12-20T05:11:31;98872.09;;;3.49;82.18
73453;BME280;61687;56.232;43.854;2023-12-20T05:13:56;98874.38;;;3.47;81.92
73453;BME280;61687;56.232;43.854;2023-12-20T05:16:22;98878.56;;;3.44;82.19
73453;BME280;61687;56.232;43.854;2023-12-20T05:18:48;98868.00;;;3.39;82.15
73453;BME280;61687;56.232;43.854;2023-12-20T05:21:16;98862.03;;;3.30;82.68
73453;BME280;61687;56.232;43.854;2023-12-20T05:23:42;98867.59;;;3.37;82.46
73453;BME280;61687;56.232;43.854;2023-12-20T05:26:08;98864.88;;;3.37;82.15
73453;BME280;61687;56.232;43.854;2023-12-20T05:28:34;98859.38;;;3.34;82.21
73453;BME280;61687;56.232;43.854;2023-12-20T05:31:00;98846.00;;;3.41;82.23
73453;BME280;61687;56.232;43.854;2023-12-20T05:33:26;98851.13;;;3.46;82.00
73453;BME280;61687;56.232;43.854;2023-12-20T05:35:52;98862.41;;;3.48;81.52
73453;BME280;61687;56.232;43.854;2023-12-20T05:38:17;98865.53;;;3.50;81.49
73453;BME280;61687;56.232;43.854;2023-12-20T05:40:44;98869.47;;;3.53;81.23
73453;BME280;61687;56.232;43.854;2023-12-20T05:43:09;98862.97;;;3.57;80.98
73453;BME280;61687;56.232;43.854;2023-12-20T05:45:35;98863.34;;;3.56;81.09
73453;BME280;61687;56.232;43.854;2023-12-20T05:48:02;98867.66;;;3.61;81.17
73453;BME280;61687;56.232;43.854;2023-12-20T05:50:28;98871.25;;;3.65;81.01
73453;BME280;61687;56.232;43.854;2023-12-20T05:52:54;98877.53;;;3.69;80.66
73453;BME280;61687;56.232;43.854;2023-12-20T05:55:20;98874.81;;;3.69;80.94
73453;BME280;61687;56.232;43.854;2023-12-20T05:57:46;98869.03;;;3.70;80.62
73453;BME280;61687;56.232;43.854;2023-12-20T06:00:13;98877.59;;;3.72;80.81
73453;BME280;61687;56.232;43.854;2023-12-20T06:02:39;98870.38;;;3.80;80.12
73453;BME280;61687;56.232;43.854;2023-12-20T06:05:06;98866.19;;;3.83;80.03
73453;BME280;61687;56.232;43.854;2023-12-20T06:07:32;98872.41;;;3.83;80.19
73453;BME280;61687;56.232;43.854;2023-12-20T06:09:58;98882.84;;;3.85;80.15
73453;BME280;61687;56.232;43.854;2023-12-20T06:12:24;98883.28;;;3.87;79.87
73453;BME280;61687;56.232;43.854;2023-12-20T06:14:52;98886.78;;;3.88;79.92
73453;BME280;61687;56.232;43.854;2023-12-20T06:17:18;98884.13;;;3.91;79.55
73453;BME280;61687;56.232;43.854;2023-12-20T06:19:44;98887.09;;;3.82;79.56
73453;BME280;61687;56.232;43.854;2023-12-20T06:22:15;98882.84;;;3.85;79.77
73453;BME280;61687;56.232;43.854;2023-12-20T06:24:41;98896.13;;;3.90;79.63
73453;BME280;61687;56.232;43.854;2023-12-20T06:27:07;98899.25;;;3.92;79.35
73453;BME280;61687;56.232;43.854;2023-12-20T06:29:33;98905.91;;;3.95;79.03
73453;BME280;61687;56.232;43.854;2023-12-20T06:32:01;98907.38;;;3.92;78.99
73453;BME280;61687;56.232;43.854;2023-12-20T06:34:27;98908.91;;;3.90;79.26
73453;BME280;61687;56.232;43.854;2023-12-20T06:36:52;98905.97;;;3.79;79.35
73453;BME280;61687;56.232;43.854;2023-12-20T06:39:18;98905.56;;;3.77;79.76
73453;BME280;61687;56.232;43.854;2023-12-20T06:41:44;98904.63;;;3.69;79.96
73453;BME280;61687;56.232;43.854;2023-12-20T06:44:10;98902.69;;;3.69;79.94
73453;BME280;61687;56.232;43.854;2023-12-20T06:46:36;98907.59;;;3.64;80.16
73453;BME280;61687;56.232;43.854;2023-12-20T06:49:02;98904.97;;;3.67;80.00
73453;BME280;61687;56.232;43.854;2023-12-20T06:51:28;98911.94;;;3.68;79.89
73453;BME280;61687;56.232;43.854;2023-12-20T06:53:54;98921.59;;;3.66;80.08
73453;BME280;61687;56.232;43.854;2023-12-20T06:56:20;98904.75;;;3.76;79.79
73453;BME280;61687;56.232;43.854;2023-12-20T06:58:46;98911.75;;;3.77;79.54
73453;BME280;61687;56.232;43.854;2023-12-20T07:01:16;98921.84;;;3.80;79.65
73453;BME280;61687;56.232;43.854;2023-12-20T07:03:42;98910.97;;;3.77;79.58
73453;BME280;61687;56.232;43.854;2023-12-20T07:06:09;98916.94;;;3.66;79.99
73453;BME280;61687;56.232;43.854;2023-12-20T07:08:35;98915.88;;;3.71;79.87
73453;BME280;61687;56.232;43.854;2023-12-20T07:11:01;98918.72;;;3.78;79.51
73453;BME280;61687;56.232;43.854;2023-12-20T07:13:26;98916.81;;;3.79;79.66
73453;BME280;61687;56.232;43.854;2023-12-20T07:15:52;98914.44;;;3.77;79.36
73453;BME280;61687;56.232;43.854;2023-12-20T07:18:18;98919.53;;;3.79;78.96
73453;BME280;61687;56.232;43.854;2023-12-20T07:20:44;98925.72;;;3.79;78.98
73453;BME280;61687;56.232;43.854;2023-12-20T07:23:10;98926.50;;;3.80;78.82
73453;BME280;61687;56.232;43.854;2023-12-20T07:25:37;98927.66;;;3.79;78.76
73453;BME280;61687;56.232;43.854;2023-12-20T07:28:03;98923.88;;;3.83;78.46
73453;BME280;61687;56.232;43.854;2023-12-20T07:30:30;98924.22;;;3.82;78.40
73453;BME280;61687;56.232;43.854;2023-12-20T07:32:56;98922.75;;;3.84;78.28
73453;BME280;61687;56.232;43.854;2023-12-20T07:35:23;98919.66;;;3.86;77.95
73453;BME280;61687;56.232;43.854;2023-12-20T07:37:49;98922.22;;;3.79;77.95
73453;BME280;61687;56.232;43.854;2023-12-20T07:40:15;98918.03;;;3.62;78.34
73453;BME280;61687;56.232;43.854;2023-12-20T07:42:44;98928.47;;;3.63;78.38
73453;BME280;61687;56.232;43.854;2023-12-20T07:45:10;98935.91;;;3.66;78.64
73453;BME280;61687;56.232;43.854;2023-12-20T07:47:38;98921.28;;;3.71;78.35
73453;BME280;61687;56.232;43.854;2023-12-20T07:50:04;98927.50;;;3.71;78.22
73453;BME280;61687;56.232;43.854;2023-12-20T07:52:30;98931.22;;;3.83;78.17
73453;BME280;61687;56.232;43.854;2023-12-20T07:54:56;98918.00;;;3.81;77.89
73453;BME280;61687;56.232;43.854;2023-12-20T07:57:23;98929.00;;;3.89;77.88
73453;BME280;61687;56.232;43.854;2023-12-20T07:59:49;98931.34;;;3.90;77.31
73453;BME280;61687;56.232;43.854;2023-12-20T08:02:16;98936.44;;;3.92;77.58
73453;BME280;61687;56.232;43.854;2023-12-20T08:04:42;98934.84;;;3.91;77.31
73453;BME280;61687;56.232;43.854;2023-12-20T08:07:08;98939.22;;;3.95;77.32
73453;BME280;61687;56.232;43.854;2023-12-20T08:09:34;98946.25;;;4.00;76.55
73453;BME280;61687;56.232;43.854;2023-12-20T08:12:04;98941.22;;;3.98;76.08
73453;BME280;61687;56.232;43.854;2023-12-20T08:14:30;98932.22;;;3.94;76.22
73453;BME280;61687;56.232;43.854;2023-12-20T08:16:57;98941.63;;;4.00;76.43
73453;BME280;61687;56.232;43.854;2023-12-20T08:19:23;98937.50;;;4.07;75.96
73453;BME280;61687;56.232;43.854;2023-12-20T08:21:49;98941.78;;;4.08;75.98
73453;BME280;61687;56.232;43.854;2023-12-20T08:24:14;98939.91;;;4.12;75.80
73453;BME280;61687;56.232;43.854;2023-12-20T08:26:40;98946.47;;;4.11;75.83
73453;BME280;61687;56.232;43.854;2023-12-20T08:29:06;98947.34;;;4.15;75.61
73453;BME280;61687;56.232;43.854;2023-12-20T08:31:32;98948.13;;;4.15;75.72
73453;BME280;61687;56.232;43.854;2023-12-20T08:33:58;98940.00;;;4.15;75.86
73453;BME280;61687;56.232;43.854;2023-12-20T08:36:24;98941.06;;;4.11;75.93
73453;BME280;61687;56.232;43.854;2023-12-20T08:38:50;98946.44;;;4.07;76.00
73453;BME280;61687;56.232;43.854;2023-12-20T08:41:17;98947.06;;;4.00;76.36
73453;BME280;61687;56.232;43.854;2023-12-20T08:43:43;98946.44;;;4.07;76.36
73453;BME280;61687;56.232;43.854;2023-12-20T08:46:09;98957.31;;;4.11;76.25
73453;BME280;61687;56.232;43.854;2023-12-20T08:48:35;98948.34;;;4.07;76.42
73453;BME280;61687;56.232;43.854;2023-12-20T08:51:01;98943.91;;;4.18;76.23
73453;BME280;61687;56.232;43.854;2023-12-20T08:53:27;98954.47;;;4.23;76.04
73453;BME280;61687;56.232;43.854;2023-12-20T08:55:53;98944.34;;;4.20;76.03
73453;BME280;61687;56.232;43.854;2023-12-20T08:58:19;98941.22;;;4.18;76.23
73453;BME280;61687;56.232;43.854;2023-12-20T09:00:45;98944.41;;;4.24;76.07
73453;BME280;61687;56.232;43.854;2023-12-20T09:03:11;98938.19;;;4.23;76.11
73453;BME280;61687;56.232;43.854;2023-12-20T09:05:37;98943.69;;;4.27;75.99
73453;BME280;61687;56.232;43.854;2023-12-20T09:08:03;98938.31;;;4.30;75.84
73453;BME280;61687;56.232;43.854;2023-12-20T09:10:29;98944.13;;;4.29;75.75
73453;BME280;61687;56.232;43.854;2023-12-20T09:12:55;98943.03;;;4.34;75.45
73453;BME280;61687;56.232;43.854;2023-12-20T09:15:24;98941.88;;;4.35;75.52
73453;BME280;61687;56.232;43.854;2023-12-20T09:17:51;98950.75;;;4.32;75.64
73453;BME280;61687;56.232;43.854;2023-12-20T09:20:17;98936.53;;;4.38;75.71
73453;BME280;61687;56.232;43.854;2023-12-20T09:22:43;98937.09;;;4.48;75.36
73453;BME280;61687;56.232;43.854;2023-12-20T09:25:10;98951.03;;;4.46;75.32
73453;BME280;61687;56.232;43.854;2023-12-20T09:27:37;98941.53;;;4.36;75.64
73453;BME280;61687;56.232;43.854;2023-12-20T09:30:03;98947.03;;;4.40;75.86
73453;BME280;61687;56.232;43.854;2023-12-20T09:32:33;98952.72;;;4.35;76.12
73453;BME280;61687;56.232;43.854;2023-12-20T09:35:00;98946.19;;;4.36;76.19
73453;BME280;61687;56.232;43.854;2023-12-20T09:37:27;98953.19;;;4.37;76.51
73453;BME280;61687;56.232;43.854;2023-12-20T09:39:54;98957.31;;;4.30;77.05
73453;BME280;61687;56.232;43.854;2023-12-20T09:45:30;98960.72;;;4.47;77.02
73453;BME280;61687;56.232;43.854;2023-12-20T09:47:57;98957.25;;;4.47;76.96
73453;BME280;61687;56.232;43.854;2023-12-20T09:50:23;98952.81;;;4.38;77.09
73453;BME280;61687;56.232;43.854;2023-12-20T09:52:52;98958.72;;;4.44;77.30
73453;BME280;61687;56.232;43.854;2023-12-20T09:55:19;98964.94;;;4.44;77.44
73453;BME280;61687;56.232;43.854;2023-12-20T09:57:46;98964.84;;;4.61;77.06
73453;BME280;61687;56.232;43.854;2023-12-20T10:00:13;98966.84;;;4.64;76.72
73453;BME280;61687;56.232;43.854;2023-12-20T10:02:47;98961.22;;;4.76;76.27
73453;BME280;61687;56.232;43.854;2023-12-20T10:05:17;98962.56;;;4.86;76.05
73453;BME280;61687;56.232;43.854;2023-12-20T10:07:46;98963.03;;;4.92;75.89
73453;BME280;61687;56.232;43.854;2023-12-20T10:10:15;98957.53;;;4.88;76.00
73453;BME280;61687;56.232;43.854;2023-12-20T10:13:10;98961.00;;;4.85;75.90
73453;BME280;61687;56.232;43.854;2023-12-20T10:15:37;98957.09;;;4.82;75.67
73453;BME280;61687;56.232;43.854;2023-12-20T10:18:04;98949.78;;;4.86;75.54
73453;BME280;61687;56.232;43.854;2023-12-20T10:20:30;98956.34;;;4.85;75.35
73453;BME280;61687;56.232;43.854;2023-12-20T10:22:58;98961.28;;;4.80;75.55
73453;BME280;61687;56.232;43.854;2023-12-20T10:25:25;98964.97;;;4.68;75.96
73453;BME280;61687;56.232;43.854;2023-12-20T10:28:12;98956.09;;;4.71;75.76
73453;BME280;61687;56.232;43.854;2023-12-20T10:30:39;98966.72;;;4.56;75.51
73453;BME280;61687;56.232;43.854;2023-12-20T10:33:07;98962.38;;;4.52;75.73
73453;BME280;61687;56.232;43.854;2023-12-20T10:35:37;98968.97;;;4.54;75.67
73453;BME280;61687;56.232;43.854;2023-12-20T10:38:05;98972.16;;;4.56;75.31
73453;BME280;61687;56.232;43.854;2023-12-20T10:40:34;98974.13;;;4.60;75.12
73453;BME280;61687;56.232;43.854;2023-12-20T10:43:02;98977.56;;;4.56;74.79
73453;BME280;61687;56.232;43.854;2023-12-20T10:45:29;98959.66;;;4.52;74.56
73453;BME280;61687;56.232;43.854;2023-12-20T10:47:56;98961.56;;;4.51;74.20
73453;BME280;61687;56.232;43.854;2023-12-20T10:50:27;98964.59;;;4.46;74.30
73453;BME280;61687;56.232;43.854;2023-12-20T10:52:54;98967.94;;;4.39;74.38
73453;BME280;61687;56.232;43.854;2023-12-20T10:55:25;98973.03;;;4.41;73.59
73453;BME280;61687;56.232;43.854;2023-12-20T10:57:51;98966.06;;;4.43;74.07
73453;BME280;61687;56.232;43.854;2023-12-20T11:00:18;98972.28;;;4.64;73.45
73453;BME280;61687;56.232;43.854;2023-12-20T11:02:45;98963.59;;;4.78;73.24
73453;BME280;61687;56.232;43.854;2023-12-20T11:05:19;98964.38;;;4.78;73.10
73453;BME280;61687;56.232;43.854;2023-12-20T11:08:03;98970.16;;;4.77;73.40
73453;BME280;61687;56.232;43.854;2023-12-20T11:10:44;98973.13;;;4.68;73.40
73453;BME280;61687;56.232;43.854;2023-12-20T11:13:28;98983.31;;;4.75;73.75
73453;BME280;61687;56.232;43.854;2023-12-20T11:15:56;98995.31;;;4.73;73.82
73453;BME280;61687;56.232;43.854;2023-12-20T11:18:29;98993.69;;;4.69;73.96
73453;BME280;61687;56.232;43.854;2023-12-20T11:21:00;98998.19;;;4.61;74.37
73453;BME280;61687;56.232;43.854;2023-12-20T11:23:30;99005.28;;;4.46;74.98
73453;BME280;61687;56.232;43.854;2023-12-20T11:25:57;98996.78;;;4.48;75.11
73453;BME280;61687;56.232;43.854;2023-12-20T11:28:26;99004.44;;;4.42;75.25
73453;BME280;61687;56.232;43.854;2023-12-20T11:30:55;99003.56;;;4.38;75.32
73453;BME280;61687;56.232;43.854;2023-12-20T11:33:25;99013.13;;;4.32;75.73
73453;BME280;61687;56.232;43.854;2023-12-20T11:35:52;99008.13;;;4.34;75.68
73453;BME280;61687;56.232;43.854;2023-12-20T11:38:21;99007.56;;;4.24;75.72
73453;BME280;61687;56.232;43.854;2023-12-20T11:40:51;99021.97;;;4.28;75.67
73453;BME280;61687;56.232;43.854;2023-12-20T11:43:39;99014.13;;;4.23;75.72
73453;BME280;61687;56.232;43.854;2023-12-20T11:46:06;99020.31;;;4.24;75.64
73453;BME280;61687;56.232;43.854;2023-12-20T11:48:37;99029.13;;;4.17;75.90
73453;BME280;61687;56.232;43.854;2023-12-20T11:51:09;99019.69;;;4.11;75.97
73453;BME280;61687;56.232;43.854;2023-12-20T11:53:36;99026.66;;;4.12;76.11
73453;BME280;61687;56.232;43.854;2023-12-20T11:56:04;99030.91;;;4.09;76.25
73453;BME280;61687;56.232;43.854;2023-12-20T11:58:30;99031.66;;;4.10;76.37
73453;BME280;61687;56.232;43.854;2023-12-20T12:00:56;99026.31;;;4.13;76.17
73453;BME280;61687;56.232;43.854;2023-12-20T12:03:22;99040.09;;;4.05;76.36
73453;BME280;61687;56.232;43.854;2023-12-20T12:05:49;99034.22;;;4.03;76.63
73453;BME280;61687;56.232;43.854;2023-12-20T12:08:17;99033.88;;;4.04;76.56
73453;BME280;61687;56.232;43.854;2023-12-20T12:10:45;99033.91;;;3.88;76.97
73453;BME280;61687;56.232;43.854;2023-12-20T12:13:12;99030.06;;;3.89;76.98
73453;BME280;61687;56.232;43.854;2023-12-20T12:15:40;99031.81;;;3.81;77.28
73453;BME280;61687;56.232;43.854;2023-12-20T12:18:08;99025.97;;;3.79;77.20
73453;BME280;61687;56.232;43.854;2023-12-20T12:20:36;99028.25;;;3.77;77.17
73453;BME280;61687;56.232;43.854;2023-12-20T12:23:05;99041.03;;;3.77;76.96
73453;BME280;61687;56.232;43.854;2023-12-20T12:25:34;99030.81;;;3.70;77.14
73453;BME280;61687;56.232;43.854;2023-12-20T12:28:01;99036.69;;;3.56;77.44
73453;BME280;61687;56.232;43.854;2023-12-20T12:30:27;99040.72;;;3.46;77.86
73453;BME280;61687;56.232;43.854;2023-12-20T12:32:55;99037.16;;;3.42;77.98
73453;BME280;61687;56.232;43.854;2023-12-20T12:35:21;99030.22;;;3.44;78.11
73453;BME280;61687;56.232;43.854;2023-12-20T12:37:47;99043.50;;;3.50;77.96
73453;BME280;61687;56.232;43.854;2023-12-20T12:40:17;99048.22;;;3.53;77.91
73453;BME280;61687;56.232;43.854;2023-12-20T12:42:45;99044.19;;;3.47;77.86
73453;BME280;61687;56.232;43.854;2023-12-20T12:45:11;99044.63;;;3.49;77.87
73453;BME280;61687;56.232;43.854;2023-12-20T12:47:38;99045.19;;;3.38;78.19
73453;BME280;61687;56.232;43.854;2023-12-20T12:50:05;99049.72;;;3.34;78.62
73453;BME280;61687;56.232;43.854;2023-12-20T12:52:32;99054.88;;;3.39;78.56
73453;BME280;61687;56.232;43.854;2023-12-20T12:54:58;99057.25;;;3.41;78.47
73453;BME280;61687;56.232;43.854;2023-12-20T12:57:24;99053.03;;;3.43;78.44
73453;BME280;61687;56.232;43.854;2023-12-20T12:59:50;99068.34;;;3.52;78.17
73453;BME280;61687;56.232;43.854;2023-12-20T13:02:16;99069.53;;;3.54;77.88